Time;durP1;ratioP1;P1;durP2;ratioP2;P2;SDS_P1;SDS_P2;PMS_P1;PMS_P2;Temp;Humidity;BMP_temperature;BMP_pressure;BME280_temperature;BME280_humidity;BME280_pressure;Samples;Min_cycle;Max_cycle;Signal;HPM_P1;HPM_P2
2023/10/16 00:00:40;;;;;;;17.45;7.07;;;;;;;;;;5012936;28;20072;-40
2023/10/16 00:03:12;;;;;;;16.40;6.70;;;;;;;;;;4992583;28;20081;-39
2023/10/16 00:05:45;;;;;;;20.65;6.80;;;;;;;;;;5013668;28;20057;-39
2023/10/16 00:08:16;;;;;;;20.10;7.47;;;;;;;;;;5011984;28;20034;-39
2023/10/16 00:10:53;;;;;;;18.27;7.40;;;;;;;;;;4999091;28;20168;-40
2023/10/16 00:13:30;;;;;;;23.83;7.70;;;;;;;;;;5002432;28;20073;-42
2023/10/16 00:15:59;;;;;;;18.98;7.93;;;;;;;;;;5006186;28;20503;-39
2023/10/16 00:18:33;;;;;;;18.23;7.57;;;;;;;;;;5005979;28;20083;-40
2023/10/16 00:21:04;;;;;;;20.02;7.75;;;;;;;;;;5008577;28;20042;-40
2023/10/16 00:23:37;;;;;;;19.07;7.67;;;;;;;;;;4999727;28;20037;-40
2023/10/16 00:26:09;;;;;;;18.63;7.45;;;;;;;;;;5006947;28;20558;-40
2023/10/16 00:28:44;;;;;;;17.73;6.57;;;;;;;;;;4995767;28;20132;-45
2023/10/16 00:31:20;;;;;;;18.80;6.93;;;;;;;;;;5003419;28;20094;-40
2023/10/16 00:33:50;;;;;;;18.08;6.28;;;;;;;;;;4996763;28;20077;-41
2023/10/16 00:36:19;;;;;;;16.97;6.70;;;;;;;;;;5005346;28;20607;-40
2023/10/16 00:38:51;;;;;;;15.10;6.25;;;;;;;;;;5004819;28;20038;-41
2023/10/16 00:41:23;;;;;;;16.83;6.13;;;;;;;;;;4998846;28;20420;-39
2023/10/16 00:43:52;;;;;;;18.52;7.18;;;;;;;;;;5004332;28;20037;-40
2023/10/16 00:46:23;;;;;;;19.38;6.88;;;;;;;;;;5004050;28;20449;-39
2023/10/16 00:48:52;;;;;;;17.40;6.53;;;;;;;;;;5004035;28;20404;-39
2023/10/16 00:51:21;;;;;;;17.45;6.18;;;;;;;;;;5004000;28;20045;-39
2023/10/16 00:54:07;;;;;;;17.30;6.68;;;;;;;;;;4999225;28;20060;-41
2023/10/16 00:56:39;;;;;;;14.82;6.32;;;;;;;;;;4999511;28;20099;-39
2023/10/16 00:59:07;;;;;;;16.95;6.68;;;;;;;;;;5001641;28;20038;-39
2023/10/16 01:01:43;;;;;;;18.73;6.63;;;;;;;;;;5008641;28;20127;-42
2023/10/16 01:04:19;;;;;;;15.50;6.50;;;;;;;;;;5003398;28;20087;-40
2023/10/16 01:06:47;;;;;;;16.42;6.30;;;;;;;;;;5016245;28;20042;-39
2023/10/16 01:09:22;;;;;;;13.35;5.80;;;;;;;;;;5006189;28;20099;-39
2023/10/16 01:11:51;;;;;;;12.00;5.65;;;;;;;;;;5003086;28;20045;-39
2023/10/16 01:14:19;;;;;;;13.63;5.63;;;;;;;;;;5005625;28;20042;-40
2023/10/16 01:16:47;;;;;;;15.43;5.72;;;;;;;;;;5003894;28;20068;-39
2023/10/16 01:19:19;;;;;;;18.55;5.85;;;;;;;;;;4997137;28;20061;-40
2023/10/16 01:21:48;;;;;;;16.48;6.18;;;;;;;;;;5016023;28;20067;-40
2023/10/16 01:24:19;;;;;;;12.80;5.72;;;;;;;;;;4991656;28;20065;-40
2023/10/16 01:26:48;;;;;;;16.60;6.30;;;;;;;;;;5011553;28;20091;-39
2023/10/16 01:29:16;;;;;;;19.00;6.60;;;;;;;;;;4994692;28;20053;-39
2023/10/16 01:31:47;;;;;;;17.60;5.95;;;;;;;;;;5009673;28;20049;-40
2023/10/16 01:34:16;;;;;;;18.17;6.53;;;;;;;;;;4989039;28;20482;-39
2023/10/16 01:36:46;;;;;;;17.75;6.82;;;;;;;;;;5000442;28;20042;-39
2023/10/16 01:42:04;;;;;;;15.77;6.82;;;;;;;;;;5001138;28;20421;-39
2023/10/16 01:44:32;;;;;;;15.88;5.63;;;;;;;;;;5004888;28;20825;-39
2023/10/16 01:47:03;;;;;;;15.88;5.90;;;;;;;;;;5000331;28;20044;-40
2023/10/16 01:49:31;;;;;;;16.88;6.30;;;;;;;;;;5012276;28;20033;-40
2023/10/16 01:51:59;;;;;;;16.23;5.93;;;;;;;;;;5011656;28;20045;-40
2023/10/16 01:54:29;;;;;;;14.85;5.75;;;;;;;;;;5007545;28;20032;-39
2023/10/16 01:57:00;;;;;;;16.65;5.88;;;;;;;;;;5017796;28;20079;-39
2023/10/16 01:59:32;;;;;;;13.70;5.88;;;;;;;;;;4999606;28;20045;-40
2023/10/16 02:02:00;;;;;;;13.60;6.28;;;;;;;;;;5016481;28;20041;-41
2023/10/16 02:04:28;;;;;;;16.70;6.30;;;;;;;;;;4983644;28;20102;-44
2023/10/16 02:06:55;;;;;;;14.45;6.63;;;;;;;;;;4997539;28;20045;-40
2023/10/16 02:09:24;;;;;;;17.35;7.30;;;;;;;;;;4974442;28;20034;-40
2023/10/16 02:11:58;;;;;;;17.52;6.80;;;;;;;;;;5014799;28;20519;-39
2023/10/16 02:14:26;;;;;;;16.80;6.97;;;;;;;;;;4990769;28;20041;-39
2023/10/16 02:16:56;;;;;;;17.87;7.03;;;;;;;;;;5007176;28;20048;-39
2023/10/16 02:19:25;;;;;;;19.75;6.63;;;;;;;;;;4981403;28;20042;-39
2023/10/16 02:21:53;;;;;;;17.92;6.50;;;;;;;;;;5013908;28;20043;-39
2023/10/16 02:24:21;;;;;;;13.77;5.82;;;;;;;;;;4992754;28;20037;-41
2023/10/16 02:27:02;;;;;;;15.82;6.15;;;;;;;;;;4995874;28;20040;-40
2023/10/16 02:29:32;;;;;;;16.63;6.33;;;;;;;;;;5005636;28;20072;-39
2023/10/16 02:32:03;;;;;;;16.45;5.82;;;;;;;;;;5000051;28;20048;-40
2023/10/16 02:34:33;;;;;;;14.43;6.10;;;;;;;;;;5016098;28;20508;-40
2023/10/16 02:37:01;;;;;;;14.55;5.72;;;;;;;;;;5011573;28;20040;-39
2023/10/16 02:39:38;;;;;;;13.52;5.80;;;;;;;;;;4994236;28;20057;-39
2023/10/16 02:42:08;;;;;;;17.07;6.10;;;;;;;;;;5008517;28;20149;-40
2023/10/16 02:44:42;;;;;;;14.70;6.35;;;;;;;;;;5003628;28;20045;-39
2023/10/16 02:47:13;;;;;;;15.25;6.03;;;;;;;;;;5006701;28;20049;-40
2023/10/16 02:49:47;;;;;;;15.50;6.07;;;;;;;;;;5005346;28;20491;-39
2023/10/16 02:52:16;;;;;;;13.82;6.43;;;;;;;;;;5010855;28;20063;-40
2023/10/16 02:54:45;;;;;;;15.57;6.10;;;;;;;;;;4993916;28;20679;-39
2023/10/16 02:57:14;;;;;;;16.02;6.13;;;;;;;;;;5013080;28;20312;-40
2023/10/16 02:59:43;;;;;;;15.98;6.40;;;;;;;;;;4963939;28;20044;-40
2023/10/16 03:02:17;;;;;;;14.98;6.00;;;;;;;;;;5015802;28;20495;-40
2023/10/16 03:04:51;;;;;;;12.98;6.05;;;;;;;;;;5005607;28;20492;-39
2023/10/16 03:07:20;;;;;;;16.27;6.33;;;;;;;;;;5010201;28;20125;-40
2023/10/16 03:09:49;;;;;;;14.23;5.82;;;;;;;;;;4985378;28;20069;-40
2023/10/16 03:12:19;;;;;;;19.38;5.78;;;;;;;;;;4999530;28;20812;-39
2023/10/16 03:14:56;;;;;;;15.00;5.43;;;;;;;;;;4993644;28;20060;-39
2023/10/16 03:17:34;;;;;;;14.93;5.78;;;;;;;;;;5009292;28;20057;-40
2023/10/16 03:20:09;;;;;;;17.07;6.30;;;;;;;;;;5008689;28;20041;-39
2023/10/16 03:22:42;;;;;;;12.85;5.25;;;;;;;;;;5010141;28;20041;-40
2023/10/16 03:25:24;;;;;;;15.40;6.07;;;;;;;;;;5008913;28;20048;-39
2023/10/16 03:27:55;;;;;;;14.60;6.00;;;;;;;;;;5029237;28;20040;-39
2023/10/16 03:30:27;;;;;;;15.98;5.63;;;;;;;;;;4998817;28;21924;-40
2023/10/16 03:32:55;;;;;;;15.50;6.30;;;;;;;;;;5008820;28;20073;-39
2023/10/16 03:35:26;;;;;;;15.27;5.38;;;;;;;;;;5008193;28;20037;-43
2023/10/16 03:37:54;;;;;;;16.70;6.20;;;;;;;;;;5011244;28;20038;-40
2023/10/16 03:40:24;;;;;;;16.15;5.95;;;;;;;;;;5009328;28;20045;-39
2023/10/16 03:42:53;;;;;;;13.35;5.60;;;;;;;;;;5009547;28;20044;-39
2023/10/16 03:45:21;;;;;;;14.33;5.50;;;;;;;;;;5006407;28;20492;-40
2023/10/16 03:47:52;;;;;;;14.70;5.20;;;;;;;;;;4993342;28;20037;-40
2023/10/16 03:50:24;;;;;;;22.55;6.00;;;;;;;;;;5014634;28;20593;-40
2023/10/16 03:52:54;;;;;;;16.23;6.22;;;;;;;;;;5010883;28;20045;-39
2023/10/16 03:55:24;;;;;;;17.65;5.55;;;;;;;;;;4981400;28;20037;-39
2023/10/16 03:57:53;;;;;;;14.57;5.80;;;;;;;;;;5018484;28;20044;-39
2023/10/16 04:00:25;;;;;;;14.27;5.53;;;;;;;;;;5007206;28;21851;-39
2023/10/16 04:02:59;;;;;;;18.33;5.43;;;;;;;;;;5012546;28;20053;-40
2023/10/16 04:05:33;;;;;;;16.00;5.70;;;;;;;;;;4989942;28;20038;-40
2023/10/16 04:08:01;;;;;;;17.23;5.60;;;;;;;;;;5012420;28;20051;-40
2023/10/16 04:10:29;;;;;;;16.83;5.60;;;;;;;;;;5005176;28;20687;-40
2023/10/16 04:12:57;;;;;;;14.77;5.70;;;;;;;;;;5009136;28;20094;-40
2023/10/16 04:15:50;;;;;;;13.48;5.40;;;;;;;;;;5008367;28;20033;-39
2023/10/16 04:18:28;;;;;;;13.35;5.55;;;;;;;;;;5001571;28;20701;-39
2023/10/16 04:21:10;;;;;;;13.00;5.30;;;;;;;;;;5015755;28;20049;-40
2023/10/16 04:23:52;;;;;;;18.73;6.10;;;;;;;;;;5013520;28;20037;-41
2023/10/16 04:26:33;;;;;;;14.95;5.80;;;;;;;;;;5019060;28;20048;-39
2023/10/16 04:31:55;;;;;;;12.80;5.13;;;;;;;;;;5007780;28;20044;-40
2023/10/16 04:34:52;;;;;;;15.00;5.05;;;;;;;;;;5003697;28;20049;-39
2023/10/16 04:37:36;;;;;;;17.93;5.13;;;;;;;;;;5008361;28;20404;-40
2023/10/16 04:45:54;;;;;;;13.27;5.80;;;;;;;;;;4997211;28;20033;-39
2023/10/16 04:48:39;;;;;;;21.13;6.00;;;;;;;;;;4998916;28;20042;-41
2023/10/16 04:51:16;;;;;;;14.47;5.40;;;;;;;;;;4999123;28;20064;-39
2023/10/16 04:54:13;;;;;;;13.13;5.50;;;;;;;;;;4988606;28;20798;-40
2023/10/16 04:59:58;;;;;;;13.23;5.40;;;;;;;;;;4999275;28;20033;-40
2023/10/16 05:02:40;;;;;;;13.13;5.05;;;;;;;;;;5008538;28;20077;-40
2023/10/16 05:08:06;;;;;;;13.60;5.72;;;;;;;;;;4994565;28;20055;-39
2023/10/16 05:19:02;;;;;;;15.83;5.83;;;;;;;;;;5009469;28;20045;-40
2023/10/16 06:14:22;;;;;;;12.40;5.30;;;;;;;;;;5006609;28;20576;-40
2023/10/16 06:16:53;;;;;;;16.48;5.18;;;;;;;;;;5008332;28;20033;-40
2023/10/16 06:19:22;;;;;;;12.80;5.13;;;;;;;;;;4996188;28;20068;-40
2023/10/16 06:21:51;;;;;;;12.57;4.90;;;;;;;;;;5012460;28;20052;-40
2023/10/16 06:24:26;;;;;;;10.93;4.80;;;;;;;;;;5002044;28;20724;-39
2023/10/16 06:26:55;;;;;;;10.57;4.80;;;;;;;;;;5007654;28;20038;-39
2023/10/16 06:29:34;;;;;;;13.32;5.53;;;;;;;;;;5008159;28;20053;-40
2023/10/16 06:32:06;;;;;;;11.00;5.53;;;;;;;;;;4998388;28;20485;-39
2023/10/16 06:34:34;;;;;;;14.55;4.82;;;;;;;;;;5008818;28;20458;-39
2023/10/16 06:37:05;;;;;;;10.88;5.20;;;;;;;;;;4998726;28;20081;-40
2023/10/16 06:39:36;;;;;;;11.90;5.10;;;;;;;;;;5012722;28;20487;-39
2023/10/16 06:42:04;;;;;;;15.88;5.93;;;;;;;;;;4989870;28;20037;-39
2023/10/16 06:44:34;;;;;;;13.95;5.28;;;;;;;;;;5016081;28;20045;-39
2023/10/16 06:47:02;;;;;;;14.60;5.18;;;;;;;;;;4992578;28;20419;-39
2023/10/16 06:49:35;;;;;;;15.13;5.55;;;;;;;;;;5005683;28;20043;-39
2023/10/16 06:52:04;;;;;;;12.87;5.37;;;;;;;;;;4999450;28;20527;-39
2023/10/16 06:54:32;;;;;;;10.57;4.70;;;;;;;;;;4998573;28;20083;-40
2023/10/16 06:57:04;;;;;;;12.07;5.00;;;;;;;;;;5004386;28;20124;-39
2023/10/16 06:59:35;;;;;;;11.50;5.05;;;;;;;;;;4978851;28;20045;-39
2023/10/16 07:02:08;;;;;;;11.43;4.80;;;;;;;;;;5001707;28;20595;-39
2023/10/16 07:04:40;;;;;;;12.33;5.50;;;;;;;;;;5000573;28;20038;-40
2023/10/16 07:07:14;;;;;;;12.35;4.97;;;;;;;;;;5010364;28;20043;-42
2023/10/16 07:09:47;;;;;;;10.18;4.95;;;;;;;;;;5000621;28;20115;-41
2023/10/16 07:12:17;;;;;;;10.15;4.68;;;;;;;;;;4993438;28;20520;-40
2023/10/16 07:14:56;;;;;;;10.80;4.85;;;;;;;;;;4981637;28;20643;-40
2023/10/16 07:17:25;;;;;;;11.20;4.63;;;;;;;;;;4999301;28;20041;-40
2023/10/16 07:19:58;;;;;;;15.50;4.47;;;;;;;;;;4999368;28;20118;-41
2023/10/16 07:22:31;;;;;;;13.85;5.30;;;;;;;;;;5010548;28;20144;-40
2023/10/16 07:25:23;;;;;;;14.50;4.70;;;;;;;;;;5003058;28;20041;-39
2023/10/16 07:27:57;;;;;;;12.55;4.03;;;;;;;;;;4993097;28;20839;-40
2023/10/16 07:30:28;;;;;;;12.67;4.33;;;;;;;;;;5002556;28;20045;-40
2023/10/16 07:32:56;;;;;;;10.98;4.00;;;;;;;;;;5008139;28;20038;-40
2023/10/16 07:35:23;;;;;;;13.18;4.57;;;;;;;;;;4978624;28;20037;-39
2023/10/16 07:37:53;;;;;;;17.33;5.97;;;;;;;;;;4655512;28;10000292;-39
2023/10/16 07:40:21;;;;;;;13.75;4.78;;;;;;;;;;4990905;28;20402;-39
2023/10/16 07:42:49;;;;;;;13.32;4.30;;;;;;;;;;4994855;28;20048;-40
2023/10/16 07:45:21;;;;;;;33.23;5.83;;;;;;;;;;5000308;28;20037;-40
2023/10/16 07:47:51;;;;;;;15.50;4.70;;;;;;;;;;4989222;28;20037;-40
2023/10/16 07:50:19;;;;;;;17.95;4.88;;;;;;;;;;5007125;28;20056;-39
2023/10/16 07:52:47;;;;;;;13.45;4.20;;;;;;;;;;4977843;28;20056;-39
2023/10/16 07:55:19;;;;;;;12.98;3.90;;;;;;;;;;4990153;28;20247;-39
2023/10/16 07:57:48;;;;;;;10.03;3.60;;;;;;;;;;5000032;28;20049;-40
2023/10/16 08:00:24;;;;;;;13.10;4.00;;;;;;;;;;4642135;28;9999763;-40
2023/10/16 08:03:04;;;;;;;13.15;3.70;;;;;;;;;;4985884;28;20044;-40
2023/10/16 08:05:33;;;;;;;13.65;4.47;;;;;;;;;;4927003;28;20041;-40
2023/10/16 08:08:11;;;;;;;13.02;3.83;;;;;;;;;;4999343;28;20041;-39
2023/10/16 08:10:41;;;;;;;12.88;3.55;;;;;;;;;;4958455;28;20700;-39
2023/10/16 08:13:13;;;;;;;13.10;3.90;;;;;;;;;;4994537;28;20055;-39
2023/10/16 08:15:44;;;;;;;10.80;3.55;;;;;;;;;;4988656;28;20060;-39
2023/10/16 08:18:14;;;;;;;13.45;3.65;;;;;;;;;;4993511;28;20240;-39
2023/10/16 08:21:00;;;;;;;10.93;3.40;;;;;;;;;;4956131;28;20616;-39
2023/10/16 08:23:34;;;;;;;9.50;3.03;;;;;;;;;;4977890;28;20076;-39
2023/10/16 08:26:05;;;;;;;7.67;2.60;;;;;;;;;;4979007;28;20041;-40
2023/10/16 08:28:36;;;;;;;14.30;2.95;;;;;;;;;;4959131;28;20317;-39
2023/10/16 08:31:22;;;;;;;11.05;3.10;;;;;;;;;;4987324;28;20044;-39
2023/10/16 08:33:54;;;;;;;9.13;3.10;;;;;;;;;;4966150;28;20048;-39
2023/10/16 08:36:22;;;;;;;9.50;3.03;;;;;;;;;;4995903;28;20123;-39
2023/10/16 08:38:55;;;;;;;10.80;2.83;;;;;;;;;;4975533;28;20060;-40
2023/10/16 08:41:42;;;;;;;9.15;2.63;;;;;;;;;;4993695;28;20041;-39
2023/10/16 08:44:14;;;;;;;11.07;2.63;;;;;;;;;;4987072;28;20520;-40
2023/10/16 08:49:32;;;;;;;13.85;3.35;;;;;;;;;;4983419;28;20053;-39
2023/10/16 08:52:21;;;;;;;10.07;2.13;;;;;;;;;;4994361;28;20107;-39
2023/10/16 08:55:14;;;;;;;10.65;2.05;;;;;;;;;;5011332;28;20045;-39
2023/10/16 08:57:43;;;;;;;8.55;2.28;;;;;;;;;;4995360;28;20053;-39
2023/10/16 09:00:19;;;;;;;15.25;3.10;;;;;;;;;;4976070;28;20043;-39
2023/10/16 09:02:51;;;;;;;8.38;2.15;;;;;;;;;;4979797;28;20181;-40
2023/10/16 09:05:21;;;;;;;10.80;1.90;;;;;;;;;;4992258;28;20048;-39
2023/10/16 09:07:51;;;;;;;8.27;1.90;;;;;;;;;;4984917;28;20036;-41
2023/10/16 09:10:22;;;;;;;8.80;2.35;;;;;;;;;;4984713;28;20689;-39
2023/10/16 09:12:55;;;;;;;8.55;1.88;;;;;;;;;;4979785;28;20045;-41
2023/10/16 09:15:24;;;;;;;8.60;1.90;;;;;;;;;;4980706;28;20049;-39
2023/10/16 09:17:54;;;;;;;12.23;2.33;;;;;;;;;;4991513;28;20048;-39
2023/10/16 09:20:33;;;;;;;10.05;2.08;;;;;;;;;;4979168;28;20041;-41
2023/10/16 09:23:08;;;;;;;10.63;2.03;;;;;;;;;;4987617;28;20049;-40
2023/10/16 09:25:35;;;;;;;11.55;2.08;;;;;;;;;;4990545;28;20049;-40
2023/10/16 09:28:06;;;;;;;9.50;1.83;;;;;;;;;;4986274;28;20044;-39
2023/10/16 09:30:34;;;;;;;13.27;2.07;;;;;;;;;;4998199;28;20124;-39
2023/10/16 09:33:03;;;;;;;8.00;1.63;;;;;;;;;;4984536;28;20603;-39
2023/10/16 09:35:33;;;;;;;10.95;2.00;;;;;;;;;;4992837;28;20064;-39
2023/10/16 09:38:12;;;;;;;9.65;2.08;;;;;;;;;;4969314;28;20056;-39
2023/10/16 09:40:44;;;;;;;8.45;2.63;;;;;;;;;;4985022;28;20045;-39
2023/10/16 09:43:24;;;;;;;9.37;2.07;;;;;;;;;;4990233;28;20183;-39
2023/10/16 09:48:38;;;;;;;8.27;1.83;;;;;;;;;;4988978;28;20554;-41
2023/10/16 09:51:12;;;;;;;9.40;1.58;;;;;;;;;;4988368;28;20511;-39
2023/10/16 09:53:41;;;;;;;10.65;1.70;;;;;;;;;;4958272;28;20549;-40
2023/10/16 09:56:12;;;;;;;8.37;2.00;;;;;;;;;;4995679;28;20083;-41
2023/10/16 09:58:44;;;;;;;9.95;1.65;;;;;;;;;;4991844;28;20039;-39
2023/10/16 10:01:23;;;;;;;8.38;1.52;;;;;;;;;;4638073;28;10000498;-39
2023/10/16 10:03:53;;;;;;;6.90;2.00;;;;;;;;;;4972845;28;21174;-39
2023/10/16 10:06:32;;;;;;;11.00;1.45;;;;;;;;;;5000166;28;20430;-39
2023/10/16 10:11:47;;;;;;;10.00;1.42;;;;;;;;;;4997416;28;20099;-39
2023/10/16 10:14:26;;;;;;;10.07;1.60;;;;;;;;;;5001597;28;20044;-40
2023/10/16 10:16:59;;;;;;;12.95;1.27;;;;;;;;;;4969124;28;20045;-40
2023/10/16 10:19:32;;;;;;;6.60;1.33;;;;;;;;;;4988945;28;20541;-39
2023/10/16 10:22:06;;;;;;;8.10;1.37;;;;;;;;;;4980386;28;20041;-39
2023/10/16 10:24:37;;;;;;;9.02;1.35;;;;;;;;;;4971706;28;20040;-39
2023/10/16 10:27:05;;;;;;;8.80;1.20;;;;;;;;;;4981130;28;24098;-39
2023/10/16 10:29:34;;;;;;;7.22;1.38;;;;;;;;;;4994516;28;20045;-39
2023/10/16 10:32:12;;;;;;;6.20;1.27;;;;;;;;;;4973127;28;20337;-39
2023/10/16 10:34:42;;;;;;;7.70;1.97;;;;;;;;;;5008120;28;20459;-39
2023/10/16 10:37:40;;;;;;;9.90;1.55;;;;;;;;;;4988511;28;20045;-39
2023/10/16 10:40:15;;;;;;;8.35;1.65;;;;;;;;;;4979381;28;20049;-41
2023/10/16 10:42:45;;;;;;;6.57;1.75;;;;;;;;;;4993192;28;20045;-39
2023/10/16 10:45:20;;;;;;;7.07;1.50;;;;;;;;;;4980455;28;20076;-39
2023/10/16 10:47:54;;;;;;;10.40;1.73;;;;;;;;;;4988559;28;20037;-39
2023/10/16 10:50:25;;;;;;;6.13;1.30;;;;;;;;;;5005134;28;20099;-40
2023/10/16 10:52:53;;;;;;;6.53;1.83;;;;;;;;;;4978182;28;20048;-39
2023/10/16 10:55:22;;;;;;;7.93;1.50;;;;;;;;;;5002166;28;20052;-39
2023/10/16 10:57:58;;;;;;;10.48;2.60;;;;;;;;;;4974323;28;20166;-39
2023/10/16 11:00:49;;;;;;;6.03;1.50;;;;;;;;;;4999271;28;20136;-39
2023/10/16 11:03:31;;;;;;;8.73;2.17;;;;;;;;;;5010967;28;20647;-39
2023/10/16 11:06:00;;;;;;;7.90;1.70;;;;;;;;;;4989140;28;20383;-39
2023/10/16 11:08:31;;;;;;;8.73;1.20;;;;;;;;;;5006364;28;20042;-39
2023/10/16 11:11:05;;;;;;;7.80;1.85;;;;;;;;;;4984746;28;20342;-41
2023/10/16 11:13:33;;;;;;;8.23;1.50;;;;;;;;;;4984570;28;20033;-39
2023/10/16 11:16:01;;;;;;;8.05;1.50;;;;;;;;;;4988186;28;20417;-43
2023/10/16 11:18:30;;;;;;;6.28;1.58;;;;;;;;;;5009533;28;20118;-39
2023/10/16 11:21:04;;;;;;;6.72;1.45;;;;;;;;;;4972825;28;20116;-39
2023/10/16 11:23:32;;;;;;;7.68;2.03;;;;;;;;;;5005789;28;20055;-41
2023/10/16 11:26:00;;;;;;;6.33;1.80;;;;;;;;;;4955665;28;20049;-40
2023/10/16 11:28:32;;;;;;;6.35;1.42;;;;;;;;;;4982536;28;20296;-40
2023/10/16 11:31:01;;;;;;;8.40;2.10;;;;;;;;;;4987975;28;20498;-40
2023/10/16 11:33:34;;;;;;;7.20;1.65;;;;;;;;;;4256218;28;10000832;-39
2023/10/16 11:36:03;;;;;;;7.63;1.43;;;;;;;;;;4986241;28;20234;-39
2023/10/16 11:38:34;;;;;;;6.55;1.45;;;;;;;;;;4997301;28;22264;-39
2023/10/16 11:41:04;;;;;;;8.18;1.90;;;;;;;;;;4975370;28;20041;-39
2023/10/16 11:43:47;;;;;;;8.13;1.60;;;;;;;;;;4988053;28;20048;-39
2023/10/16 11:49:17;;;;;;;8.17;2.20;;;;;;;;;;5021184;28;20086;-40
2023/10/16 11:51:48;;;;;;;6.13;2.00;;;;;;;;;;4982258;28;20051;-39
2023/10/16 11:54:19;;;;;;;6.85;1.75;;;;;;;;;;4955670;28;20825;-41
2023/10/16 11:56:50;;;;;;;6.50;1.10;;;;;;;;;;5002148;28;20156;-39
2023/10/16 11:59:21;;;;;;;5.32;0.98;;;;;;;;;;4961238;28;20042;-39
2023/10/16 12:01:51;;;;;;;6.43;1.20;;;;;;;;;;4639425;28;10000068;-39
2023/10/16 12:04:30;;;;;;;11.27;1.57;;;;;;;;;;5006810;28;20045;-39
2023/10/16 12:07:12;;;;;;;7.82;1.10;;;;;;;;;;4999491;28;20126;-38
2023/10/16 12:09:42;;;;;;;6.18;1.05;;;;;;;;;;4992495;28;20037;-39
2023/10/16 12:12:19;;;;;;;5.72;0.90;;;;;;;;;;4989072;28;20607;-38
2023/10/16 12:14:50;;;;;;;5.25;1.30;;;;;;;;;;5000651;28;20589;-41
2023/10/16 12:17:19;;;;;;;5.70;1.07;;;;;;;;;;4984417;28;20336;-39
2023/10/16 12:19:47;;;;;;;9.38;1.10;;;;;;;;;;4987827;28;20071;-39
2023/10/16 12:22:19;;;;;;;5.53;1.13;;;;;;;;;;4983894;28;20056;-39
2023/10/16 12:24:47;;;;;;;6.47;1.23;;;;;;;;;;4979029;28;20132;-39
2023/10/16 12:27:16;;;;;;;6.50;1.30;;;;;;;;;;4988213;28;20049;-39
2023/10/16 12:29:44;;;;;;;7.57;0.90;;;;;;;;;;4969173;28;20124;-38
2023/10/16 12:32:14;;;;;;;6.43;0.80;;;;;;;;;;4979145;28;20149;-38
2023/10/16 12:34:42;;;;;;;8.07;1.38;;;;;;;;;;4985353;28;20697;-39
2023/10/16 12:37:11;;;;;;;6.18;1.08;;;;;;;;;;5005321;28;20049;-40
2023/10/16 12:39:45;;;;;;;4.43;1.15;;;;;;;;;;4978280;28;20518;-39
2023/10/16 12:42:33;;;;;;;6.50;1.40;;;;;;;;;;4993636;28;20048;-39
2023/10/16 12:45:00;;;;;;;5.25;0.93;;;;;;;;;;4990866;28;20136;-39
2023/10/16 12:47:30;;;;;;;6.72;1.38;;;;;;;;;;5005097;28;20129;-39
2023/10/16 12:50:11;;;;;;;5.05;1.10;;;;;;;;;;4994146;28;20065;-39
2023/10/16 12:52:39;;;;;;;5.50;1.30;;;;;;;;;;4989043;28;20057;-39
2023/10/16 12:55:09;;;;;;;6.13;1.30;;;;;;;;;;4995690;28;20045;-39
2023/10/16 12:57:37;;;;;;;4.95;1.15;;;;;;;;;;4997839;28;20753;-39
2023/10/16 13:00:15;;;;;;;5.70;1.00;;;;;;;;;;4991393;28;20046;-39
2023/10/16 13:02:45;;;;;;;6.95;1.40;;;;;;;;;;4990550;28;20033;-39
2023/10/16 13:05:14;;;;;;;8.52;1.40;;;;;;;;;;4999976;28;20046;-39
2023/10/16 13:07:42;;;;;;;6.83;1.20;;;;;;;;;;4990033;28;20735;-39
2023/10/16 13:10:20;;;;;;;6.65;1.40;;;;;;;;;;4978607;28;20076;-39
2023/10/16 13:12:48;;;;;;;5.85;1.40;;;;;;;;;;4987231;28;20064;-39
2023/10/16 13:15:24;;;;;;;8.65;0.90;;;;;;;;;;5003360;28;20049;-38
2023/10/16 13:17:55;;;;;;;5.63;0.90;;;;;;;;;;4997962;28;20059;-39
2023/10/16 13:20:27;;;;;;;6.27;1.00;;;;;;;;;;5006858;28;20513;-39
2023/10/16 13:22:56;;;;;;;5.47;0.77;;;;;;;;;;5001363;28;20056;-40
2023/10/16 13:25:30;;;;;;;7.22;1.20;;;;;;;;;;4979526;28;20693;-38
2023/10/16 13:28:00;;;;;;;8.02;2.08;;;;;;;;;;5002176;28;20044;-39
2023/10/16 13:30:31;;;;;;;7.13;1.25;;;;;;;;;;4991248;28;20175;-39
2023/10/16 13:33:11;;;;;;;7.40;1.30;;;;;;;;;;5004522;28;20819;-40
2023/10/16 13:35:39;;;;;;;6.63;1.13;;;;;;;;;;4999924;28;20124;-39
2023/10/16 13:38:08;;;;;;;9.43;1.27;;;;;;;;;;5003995;28;20065;-39
2023/10/16 13:40:38;;;;;;;4.60;0.95;;;;;;;;;;4980465;28;20472;-39
2023/10/16 13:43:10;;;;;;;9.18;0.93;;;;;;;;;;4993780;28;20093;-39
2023/10/16 13:45:40;;;;;;;7.43;1.20;;;;;;;;;;5002135;28;20030;-39
2023/10/16 13:48:16;;;;;;;9.60;1.30;;;;;;;;;;4995098;28;20427;-39
2023/10/16 13:50:47;;;;;;;8.73;1.40;;;;;;;;;;4991275;28;20037;-39
2023/10/16 13:53:15;;;;;;;6.28;1.02;;;;;;;;;;4993757;28;20049;-40
2023/10/16 13:55:42;;;;;;;6.10;1.60;;;;;;;;;;4989227;28;20086;-38
2023/10/16 13:58:11;;;;;;;6.20;1.20;;;;;;;;;;4997117;28;20051;-39
2023/10/16 14:00:38;;;;;;;7.60;1.30;;;;;;;;;;5001985;28;20984;-39
2023/10/16 14:03:08;;;;;;;5.57;1.40;;;;;;;;;;4297154;28;10000429;-39
2023/10/16 14:05:40;;;;;;;7.37;1.20;;;;;;;;;;4999142;28;20294;-40
2023/10/16 14:08:10;;;;;;;5.63;1.30;;;;;;;;;;5001153;28;20052;-41
2023/10/16 14:10:49;;;;;;;5.88;1.30;;;;;;;;;;4991474;28;20052;-39
2023/10/16 14:13:21;;;;;;;8.20;1.80;;;;;;;;;;4964196;28;20037;-39
2023/10/16 14:15:50;;;;;;;6.40;1.25;;;;;;;;;;5000492;28;20045;-40
2023/10/16 14:18:21;;;;;;;7.30;1.53;;;;;;;;;;4962917;28;20057;-39
2023/10/16 14:20:50;;;;;;;6.43;1.63;;;;;;;;;;4979755;28;20037;-40
2023/10/16 14:23:24;;;;;;;6.60;1.58;;;;;;;;;;4999617;28;20139;-38
2023/10/16 14:25:57;;;;;;;6.47;1.00;;;;;;;;;;5007039;28;20105;-39
2023/10/16 14:28:32;;;;;;;7.35;1.30;;;;;;;;;;4991197;28;20048;-39
2023/10/16 14:31:01;;;;;;;6.53;1.30;;;;;;;;;;4995607;28;20052;-39
2023/10/16 14:33:30;;;;;;;5.40;0.93;;;;;;;;;;4997693;28;20087;-39
2023/10/16 14:36:00;;;;;;;7.40;1.23;;;;;;;;;;4981185;28;20034;-39
2023/10/16 14:38:29;;;;;;;5.15;1.20;;;;;;;;;;5006597;28;20220;-39
2023/10/16 14:41:04;;;;;;;8.30;1.50;;;;;;;;;;4998239;28;20809;-40
2023/10/16 14:43:33;;;;;;;9.93;2.23;;;;;;;;;;4997909;28;20115;-39
2023/10/16 14:46:03;;;;;;;10.00;2.40;;;;;;;;;;5000116;28;20038;-40
2023/10/16 14:48:33;;;;;;;6.68;1.67;;;;;;;;;;4985936;28;20034;-39
2023/10/16 14:51:04;;;;;;;7.75;1.45;;;;;;;;;;5009812;28;20041;-39
2023/10/16 14:53:39;;;;;;;9.70;1.40;;;;;;;;;;4999321;28;20033;-39
2023/10/16 14:56:07;;;;;;;7.07;1.70;;;;;;;;;;5004615;28;20049;-39
2023/10/16 14:58:35;;;;;;;5.72;1.45;;;;;;;;;;4986292;28;20041;-40
2023/10/16 15:01:27;;;;;;;5.82;1.65;;;;;;;;;;4988207;28;20130;-39
2023/10/16 15:03:57;;;;;;;6.97;1.35;;;;;;;;;;5001174;28;20484;-39
2023/10/16 15:06:27;;;;;;;10.13;1.27;;;;;;;;;;5003195;28;20039;-39
2023/10/16 15:08:57;;;;;;;8.10;1.83;;;;;;;;;;5002715;28;20128;-39
2023/10/16 15:11:26;;;;;;;6.45;1.30;;;;;;;;;;5004554;28;20055;-39
2023/10/16 15:13:55;;;;;;;8.48;1.40;;;;;;;;;;5004746;28;20148;-39
2023/10/16 15:16:26;;;;;;;5.82;1.48;;;;;;;;;;5000187;28;20049;-39
2023/10/16 15:18:55;;;;;;;8.13;1.10;;;;;;;;;;4978837;28;20053;-39
2023/10/16 15:21:24;;;;;;;10.17;1.20;;;;;;;;;;4966290;28;20673;-41
2023/10/16 15:23:53;;;;;;;6.95;1.35;;;;;;;;;;4920425;28;20045;-39
2023/10/16 15:26:23;;;;;;;6.90;1.20;;;;;;;;;;4991709;28;20041;-40
2023/10/16 15:28:52;;;;;;;7.18;1.50;;;;;;;;;;4984110;28;20041;-40
2023/10/16 15:31:20;;;;;;;8.27;1.63;;;;;;;;;;4998481;28;20535;-39
2023/10/16 15:33:48;;;;;;;7.93;1.20;;;;;;;;;;4972975;28;20764;-39
2023/10/16 15:36:17;;;;;;;6.45;1.50;;;;;;;;;;4984115;28;20064;-40
2023/10/16 15:38:46;;;;;;;6.68;1.65;;;;;;;;;;4995067;28;20094;-40
2023/10/16 15:41:16;;;;;;;9.35;1.45;;;;;;;;;;4994897;28;20274;-39
2023/10/16 15:43:44;;;;;;;8.32;1.30;;;;;;;;;;4984903;28;20706;-39
2023/10/16 15:46:25;;;;;;;5.77;1.37;;;;;;;;;;4991633;28;20042;-38
2023/10/16 15:48:54;;;;;;;12.75;1.75;;;;;;;;;;4989876;28;20045;-39
2023/10/16 15:51:23;;;;;;;6.47;1.20;;;;;;;;;;4995980;28;20651;-39
2023/10/16 15:53:51;;;;;;;9.43;1.58;;;;;;;;;;4985719;28;20033;-39
2023/10/16 15:56:23;;;;;;;6.00;1.40;;;;;;;;;;5008216;28;20313;-39
2023/10/16 15:58:51;;;;;;;7.90;1.43;;;;;;;;;;5016528;28;20045;-39
2023/10/16 16:01:19;;;;;;;7.60;1.60;;;;;;;;;;4998764;28;20339;-39
2023/10/16 16:03:47;;;;;;;6.68;1.85;;;;;;;;;;5008880;28;20573;-39
2023/10/16 16:06:15;;;;;;;8.35;1.67;;;;;;;;;;5004430;28;20045;-39
2023/10/16 16:08:46;;;;;;;8.10;1.95;;;;;;;;;;4991824;28;20551;-39
2023/10/16 16:11:14;;;;;;;6.83;2.00;;;;;;;;;;4984302;28;20041;-39
2023/10/16 16:13:45;;;;;;;5.68;1.33;;;;;;;;;;4986895;28;20164;-39
2023/10/16 16:16:12;;;;;;;8.23;1.23;;;;;;;;;;4994425;28;20056;-39
2023/10/16 16:18:40;;;;;;;7.75;1.83;;;;;;;;;;4979976;28;20049;-39
2023/10/16 16:21:13;;;;;;;7.00;1.35;;;;;;;;;;5010886;28;20793;-39
2023/10/16 16:23:42;;;;;;;7.43;1.73;;;;;;;;;;5004397;28;21568;-39
2023/10/16 16:26:10;;;;;;;8.68;1.67;;;;;;;;;;5009752;28;20399;-39
2023/10/16 16:28:39;;;;;;;6.65;1.30;;;;;;;;;;4999722;28;20037;-39
2023/10/16 16:31:10;;;;;;;9.98;2.05;;;;;;;;;;4999270;28;20037;-39
2023/10/16 16:33:38;;;;;;;8.40;1.83;;;;;;;;;;4983545;28;20396;-39